sensor_id;sensor_type;location;lat;lon;timestamp;temperature;humidity
8248;DHT22;4164;49.844;8.830;2022-07-11T00:02:08;17.20;99.90
8248;DHT22;4164;49.844;8.830;2022-07-11T00:04:35;17.20;99.90
8248;DHT22;4164;49.844;8.830;2022-07-11T00:07:01;17.20;99.90
8248;DHT22;4164;49.844;8.830;2022-07-11T00:09:28;17.10;99.90
8248;DHT22;4164;49.844;8.830;2022-07-11T00:11:54;17.10;99.90
8248;DHT22;4164;49.844;8.830;2022-07-11T00:14:20;17.10;99.90
8248;DHT22;4164;49.844;8.830;2022-07-11T00:16:50;17.20;99.90
8248;DHT22;4164;49.844;8.830;2022-07-11T00:19:17;17.20;99.90
8248;DHT22;4164;49.844;8.830;2022-07-11T00:21:42;17.00;99.90
8248;DHT22;4164;49.844;8.830;2022-07-11T00:24:08;17.00;99.90
8248;DHT22;4164;49.844;8.830;2022-07-11T00:26:35;16.90;99.90
8248;DHT22;4164;49.844;8.830;2022-07-11T00:29:01;16.90;99.90
8248;DHT22;4164;49.844;8.830;2022-07-11T00:31:26;17.00;99.90
8248;DHT22;4164;49.844;8.830;2022-07-11T00:33:53;16.90;99.90
8248;DHT22;4164;49.844;8.830;2022-07-11T00:36:19;16.80;99.90
8248;DHT22;4164;49.844;8.830;2022-07-11T00:38:44;16.80;99.90
8248;DHT22;4164;49.844;8.830;2022-07-11T00:41:10;16.80;99.90
8248;DHT22;4164;49.844;8.830;2022-07-11T00:43:37;16.80;99.90
8248;DHT22;4164;49.844;8.830;2022-07-11T00:46:04;16.70;99.90
8248;DHT22;4164;49.844;8.830;2022-07-11T00:48:30;16.60;99.90
8248;DHT22;4164;49.844;8.830;2022-07-11T00:50:57;16.50;99.90
8248;DHT22;4164;49.844;8.830;2022-07-11T00:53:23;16.60;99.90
8248;DHT22;4164;49.844;8.830;2022-07-11T00:55:50;16.60;99.90
8248;DHT22;4164;49.844;8.830;2022-07-11T00:58:18;16.70;99.90
8248;DHT22;4164;49.844;8.830;2022-07-11T01:00:44;16.70;99.90
8248;DHT22;4164;49.844;8.830;2022-07-11T01:03:10;16.70;99.90
8248;DHT22;4164;49.844;8.830;2022-07-11T01:05:36;16.70;99.90
8248;DHT22;4164;49.844;8.830;2022-07-11T01:08:02;16.70;99.90
8248;DHT22;4164;49.844;8.830;2022-07-11T01:10:28;16.70;99.90
8248;DHT22;4164;49.844;8.830;2022-07-11T01:12:54;16.60;99.90
8248;DHT22;4164;49.844;8.830;2022-07-11T01:15:20;16.50;99.90
8248;DHT22;4164;49.844;8.830;2022-07-11T01:17:46;16.60;99.90
8248;DHT22;4164;49.844;8.830;2022-07-11T01:20:11;16.60;99.90
8248;DHT22;4164;49.844;8.830;2022-07-11T01:22:40;16.60;99.90
8248;DHT22;4164;49.844;8.830;2022-07-11T01:25:07;16.60;99.90
8248;DHT22;4164;49.844;8.830;2022-07-11T01:27:34;16.70;99.90
8248;DHT22;4164;49.844;8.830;2022-07-11T01:30:00;16.70;99.90
8248;DHT22;4164;49.844;8.830;2022-07-11T01:32:26;16.80;99.90
8248;DHT22;4164;49.844;8.830;2022-07-11T01:34:51;16.80;99.90
8248;DHT22;4164;49.844;8.830;2022-07-11T01:37:17;16.90;99.90
8248;DHT22;4164;49.844;8.830;2022-07-11T01:39:42;16.90;99.90
8248;DHT22;4164;49.844;8.830;2022-07-11T01:42:08;16.80;99.90
8248;DHT22;4164;49.844;8.830;2022-07-11T01:44:33;16.70;99.90
8248;DHT22;4164;49.844;8.830;2022-07-11T01:46:59;16.70;99.90
8248;DHT22;4164;49.844;8.830;2022-07-11T01:49:24;16.80;99.90
8248;DHT22;4164;49.844;8.830;2022-07-11T01:51:55;16.90;99.90
8248;DHT22;4164;49.844;8.830;2022-07-11T01:54:21;16.90;99.90
8248;DHT22;4164;49.844;8.830;2022-07-11T01:56:46;16.80;99.90
8248;DHT22;4164;49.844;8.830;2022-07-11T01:59:12;16.80;99.90
8248;DHT22;4164;49.844;8.830;2022-07-11T02:01:37;16.70;99.90
8248;DHT22;4164;49.844;8.830;2022-07-11T02:04:03;16.80;99.90
8248;DHT22;4164;49.844;8.830;2022-07-11T02:06:28;16.80;99.90
8248;DHT22;4164;49.844;8.830;2022-07-11T02:08:54;16.70;99.90
8248;DHT22;4164;49.844;8.830;2022-07-11T02:11:19;16.70;99.90
8248;DHT22;4164;49.844;8.830;2022-07-11T02:13:45;16.70;99.90
8248;DHT22;4164;49.844;8.830;2022-07-11T02:16:11;16.70;99.90
8248;DHT22;4164;49.844;8.830;2022-07-11T02:18:37;16.70;99.90
8248;DHT22;4164;49.844;8.830;2022-07-11T02:21:03;16.70;99.90
8248;DHT22;4164;49.844;8.830;2022-07-11T02:23:29;16.80;99.90
8248;DHT22;4164;49.844;8.830;2022-07-11T02:25:54;16.90;99.90
8248;DHT22;4164;49.844;8.830;2022-07-11T02:28:20;16.80;99.90
8248;DHT22;4164;49.844;8.830;2022-07-11T02:30:45;16.90;99.90
8248;DHT22;4164;49.844;8.830;2022-07-11T02:33:11;16.80;99.90
8248;DHT22;4164;49.844;8.830;2022-07-11T02:35:39;16.90;99.90
8248;DHT22;4164;49.844;8.830;2022-07-11T02:38:04;17.00;99.90
8248;DHT22;4164;49.844;8.830;2022-07-11T02:40:30;17.00;99.90
8248;DHT22;4164;49.844;8.830;2022-07-11T02:42:55;17.00;99.90
8248;DHT22;4164;49.844;8.830;2022-07-11T02:45:21;16.90;99.90
8248;DHT22;4164;49.844;8.830;2022-07-11T02:47:47;16.90;99.90
8248;DHT22;4164;49.844;8.830;2022-07-11T02:50:13;16.80;99.90
8248;DHT22;4164;49.844;8.830;2022-07-11T02:52:40;16.70;99.90
8248;DHT22;4164;49.844;8.830;2022-07-11T02:55:07;16.80;99.90
8248;DHT22;4164;49.844;8.830;2022-07-11T02:57:34;16.80;99.90
8248;DHT22;4164;49.844;8.830;2022-07-11T03:00:00;16.80;99.90
8248;DHT22;4164;49.844;8.830;2022-07-11T03:02:25;16.70;99.90
8248;DHT22;4164;49.844;8.830;2022-07-11T03:04:51;16.60;99.90
8248;DHT22;4164;49.844;8.830;2022-07-11T03:07:17;16.60;99.90
8248;DHT22;4164;49.844;8.830;2022-07-11T03:09:42;16.70;99.90
8248;DHT22;4164;49.844;8.830;2022-07-11T03:12:09;16.70;99.90
8248;DHT22;4164;49.844;8.830;2022-07-11T03:14:34;16.80;99.90
8248;DHT22;4164;49.844;8.830;2022-07-11T03:17:00;16.80;99.90
8248;DHT22;4164;49.844;8.830;2022-07-11T03:19:25;16.70;99.90
8248;DHT22;4164;49.844;8.830;2022-07-11T03:21:51;16.70;99.90
8248;DHT22;4164;49.844;8.830;2022-07-11T03:24:17;16.70;99.90
8248;DHT22;4164;49.844;8.830;2022-07-11T03:26:43;16.80;99.90
8248;DHT22;4164;49.844;8.830;2022-07-11T03:29:08;16.80;99.90
8248;DHT22;4164;49.844;8.830;2022-07-11T03:31:34;16.80;99.90
8248;DHT22;4164;49.844;8.830;2022-07-11T03:34:00;16.70;99.90
8248;DHT22;4164;49.844;8.830;2022-07-11T03:36:25;16.70;99.90
8248;DHT22;4164;49.844;8.830;2022-07-11T03:38:51;16.70;99.90
8248;DHT22;4164;49.844;8.830;2022-07-11T03:41:17;16.80;99.90
8248;DHT22;4164;49.844;8.830;2022-07-11T03:43:42;16.70;99.90
8248;DHT22;4164;49.844;8.830;2022-07-11T03:46:08;16.70;99.90
8248;DHT22;4164;49.844;8.830;2022-07-11T03:48:34;16.70;99.90
8248;DHT22;4164;49.844;8.830;2022-07-11T03:50:59;16.70;99.90
8248;DHT22;4164;49.844;8.830;2022-07-11T03:53:25;16.70;99.90
8248;DHT22;4164;49.844;8.830;2022-07-11T03:55:50;16.70;99.90
8248;DHT22;4164;49.844;8.830;2022-07-11T03:58:16;16.70;99.90
8248;DHT22;4164;49.844;8.830;2022-07-11T04:00:41;16.70;99.90
8248;DHT22;4164;49.844;8.830;2022-07-11T04:03:07;16.60;99.90
8248;DHT22;4164;49.844;8.830;2022-07-11T04:05:33;16.70;99.90
8248;DHT22;4164;49.844;8.830;2022-07-11T04:07:58;16.70;99.90
8248;DHT22;4164;49.844;8.830;2022-07-11T04:10:24;16.70;99.90
8248;DHT22;4164;49.844;8.830;2022-07-11T04:12:49;16.80;99.90
8248;DHT22;4164;49.844;8.830;2022-07-11T04:15:15;16.70;99.90
8248;DHT22;4164;49.844;8.830;2022-07-11T04:17:41;16.70;99.90
8248;DHT22;4164;49.844;8.830;2022-07-11T04:20:07;16.70;99.90
8248;DHT22;4164;49.844;8.830;2022-07-11T04:22:32;16.80;99.90
8248;DHT22;4164;49.844;8.830;2022-07-11T04:24:58;16.90;99.90
8248;DHT22;4164;49.844;8.830;2022-07-11T04:27:23;17.00;99.90
8248;DHT22;4164;49.844;8.830;2022-07-11T04:29:50;17.00;99.90
8248;DHT22;4164;49.844;8.830;2022-07-11T04:32:16;17.00;99.90
8248;DHT22;4164;49.844;8.830;2022-07-11T04:34:42;17.00;99.90
8248;DHT22;4164;49.844;8.830;2022-07-11T04:37:08;17.00;99.90
8248;DHT22;4164;49.844;8.830;2022-07-11T04:39:33;16.90;99.90
8248;DHT22;4164;49.844;8.830;2022-07-11T04:41:59;17.00;99.90
8248;DHT22;4164;49.844;8.830;2022-07-11T04:44:26;17.00;99.90
8248;DHT22;4164;49.844;8.830;2022-07-11T04:46:52;17.10;99.90
8248;DHT22;4164;49.844;8.830;2022-07-11T04:49:18;17.10;99.90
8248;DHT22;4164;49.844;8.830;2022-07-11T04:51:44;17.20;99.90
8248;DHT22;4164;49.844;8.830;2022-07-11T04:54:09;17.20;99.90
8248;DHT22;4164;49.844;8.830;2022-07-11T04:56:35;17.30;99.90
8248;DHT22;4164;49.844;8.830;2022-07-11T04:59:00;17.40;99.90
8248;DHT22;4164;49.844;8.830;2022-07-11T05:01:26;17.30;99.90
8248;DHT22;4164;49.844;8.830;2022-07-11T05:03:54;17.30;99.90
8248;DHT22;4164;49.844;8.830;2022-07-11T05:06:20;17.20;99.90
8248;DHT22;4164;49.844;8.830;2022-07-11T05:08:45;17.40;99.90
8248;DHT22;4164;49.844;8.830;2022-07-11T05:11:11;17.60;99.90
8248;DHT22;4164;49.844;8.830;2022-07-11T05:13:36;17.70;99.90
8248;DHT22;4164;49.844;8.830;2022-07-11T05:16:03;17.90;99.90
8248;DHT22;4164;49.844;8.830;2022-07-11T05:18:28;17.90;99.90
8248;DHT22;4164;49.844;8.830;2022-07-11T05:20:54;18.00;99.90
8248;DHT22;4164;49.844;8.830;2022-07-11T05:23:20;18.00;99.90
8248;DHT22;4164;49.844;8.830;2022-07-11T05:25:46;18.10;99.90
8248;DHT22;4164;49.844;8.830;2022-07-11T05:28:11;18.20;99.90
8248;DHT22;4164;49.844;8.830;2022-07-11T05:30:37;18.10;99.90
8248;DHT22;4164;49.844;8.830;2022-07-11T05:33:02;17.90;99.90
8248;DHT22;4164;49.844;8.830;2022-07-11T05:35:28;18.00;99.90
8248;DHT22;4164;49.844;8.830;2022-07-11T05:37:54;17.90;99.90
8248;DHT22;4164;49.844;8.830;2022-07-11T05:40:19;17.90;99.90
8248;DHT22;4164;49.844;8.830;2022-07-11T05:42:45;18.00;99.90
8248;DHT22;4164;49.844;8.830;2022-07-11T05:45:11;18.00;99.90
8248;DHT22;4164;49.844;8.830;2022-07-11T05:47:37;18.00;99.90
8248;DHT22;4164;49.844;8.830;2022-07-11T05:50:03;18.20;99.90
8248;DHT22;4164;49.844;8.830;2022-07-11T05:52:29;18.10;99.90
8248;DHT22;4164;49.844;8.830;2022-07-11T05:54:55;18.10;99.90
8248;DHT22;4164;49.844;8.830;2022-07-11T05:57:21;18.20;99.90
8248;DHT22;4164;49.844;8.830;2022-07-11T05:59:46;18.20;99.90
8248;DHT22;4164;49.844;8.830;2022-07-11T06:02:12;18.10;99.90
8248;DHT22;4164;49.844;8.830;2022-07-11T06:04:38;18.20;99.90
8248;DHT22;4164;49.844;8.830;2022-07-11T06:07:04;18.30;99.90
8248;DHT22;4164;49.844;8.830;2022-07-11T06:09:29;18.30;99.90
8248;DHT22;4164;49.844;8.830;2022-07-11T06:11:55;18.50;99.90
8248;DHT22;4164;49.844;8.830;2022-07-11T06:14:21;18.50;99.90
8248;DHT22;4164;49.844;8.830;2022-07-11T06:16:47;18.30;99.90
8248;DHT22;4164;49.844;8.830;2022-07-11T06:19:14;18.30;99.90
8248;DHT22;4164;49.844;8.830;2022-07-11T06:21:40;18.30;99.90
8248;DHT22;4164;49.844;8.830;2022-07-11T06:24:06;18.30;99.90
8248;DHT22;4164;49.844;8.830;2022-07-11T06:26:31;18.30;99.90
8248;DHT22;4164;49.844;8.830;2022-07-11T06:28:57;18.40;99.90
8248;DHT22;4164;49.844;8.830;2022-07-11T06:31:23;18.30;99.90
8248;DHT22;4164;49.844;8.830;2022-07-11T06:33:48;18.40;99.90
8248;DHT22;4164;49.844;8.830;2022-07-11T06:36:20;18.60;99.90
8248;DHT22;4164;49.844;8.830;2022-07-11T06:38:48;18.60;99.90
8248;DHT22;4164;49.844;8.830;2022-07-11T06:41:14;18.60;99.90
8248;DHT22;4164;49.844;8.830;2022-07-11T06:43:40;18.60;99.90
8248;DHT22;4164;49.844;8.830;2022-07-11T06:46:05;18.50;99.90
8248;DHT22;4164;49.844;8.830;2022-07-11T06:48:31;18.50;99.90
8248;DHT22;4164;49.844;8.830;2022-07-11T06:50:56;18.70;99.90
8248;DHT22;4164;49.844;8.830;2022-07-11T06:53:22;18.80;99.90
8248;DHT22;4164;49.844;8.830;2022-07-11T06:55:47;18.90;99.90
8248;DHT22;4164;49.844;8.830;2022-07-11T06:58:13;19.00;99.90
8248;DHT22;4164;49.844;8.830;2022-07-11T07:01:00;19.10;99.90
8248;DHT22;4164;49.844;8.830;2022-07-11T07:03:26;19.40;99.90
8248;DHT22;4164;49.844;8.830;2022-07-11T07:05:52;19.60;99.90
8248;DHT22;4164;49.844;8.830;2022-07-11T07:08:21;19.50;99.90
8248;DHT22;4164;49.844;8.830;2022-07-11T07:10:47;19.60;99.90
8248;DHT22;4164;49.844;8.830;2022-07-11T07:13:12;19.90;99.90
8248;DHT22;4164;49.844;8.830;2022-07-11T07:15:38;20.00;99.90
8248;DHT22;4164;49.844;8.830;2022-07-11T07:18:03;20.10;99.90
8248;DHT22;4164;49.844;8.830;2022-07-11T07:20:29;19.90;99.90
8248;DHT22;4164;49.844;8.830;2022-07-11T07:22:55;20.10;99.90
8248;DHT22;4164;49.844;8.830;2022-07-11T07:25:23;20.00;99.90
8248;DHT22;4164;49.844;8.830;2022-07-11T07:27:49;19.90;99.90
8248;DHT22;4164;49.844;8.830;2022-07-11T07:30:14;19.60;99.90
8248;DHT22;4164;49.844;8.830;2022-07-11T07:32:40;19.30;99.90
8248;DHT22;4164;49.844;8.830;2022-07-11T07:35:06;19.10;99.90
8248;DHT22;4164;49.844;8.830;2022-07-11T07:37:32;19.10;99.90
8248;DHT22;4164;49.844;8.830;2022-07-11T07:39:57;19.20;99.90
8248;DHT22;4164;49.844;8.830;2022-07-11T07:42:23;19.60;99.90
8248;DHT22;4164;49.844;8.830;2022-07-11T07:44:48;19.80;99.90
8248;DHT22;4164;49.844;8.830;2022-07-11T07:47:14;20.00;99.90
8248;DHT22;4164;49.844;8.830;2022-07-11T07:49:39;20.10;99.90
8248;DHT22;4164;49.844;8.830;2022-07-11T07:52:05;20.20;99.90
8248;DHT22;4164;49.844;8.830;2022-07-11T07:54:31;20.50;99.90
8248;DHT22;4164;49.844;8.830;2022-07-11T07:56:56;20.60;99.90
8248;DHT22;4164;49.844;8.830;2022-07-11T07:59:22;20.60;99.90
8248;DHT22;4164;49.844;8.830;2022-07-11T08:01:50;20.40;99.90
8248;DHT22;4164;49.844;8.830;2022-07-11T08:04:16;20.20;99.90
8248;DHT22;4164;49.844;8.830;2022-07-11T08:06:42;20.20;99.90
8248;DHT22;4164;49.844;8.830;2022-07-11T08:09:08;20.40;99.90
8248;DHT22;4164;49.844;8.830;2022-07-11T08:11:34;20.80;99.90
8248;DHT22;4164;49.844;8.830;2022-07-11T08:14:01;21.00;99.90
8248;DHT22;4164;49.844;8.830;2022-07-11T08:16:31;21.00;99.90
8248;DHT22;4164;49.844;8.830;2022-07-11T08:19:02;21.20;99.90
8248;DHT22;4164;49.844;8.830;2022-07-11T08:21:29;21.40;99.90
8248;DHT22;4164;49.844;8.830;2022-07-11T08:23:55;21.50;99.90
8248;DHT22;4164;49.844;8.830;2022-07-11T08:26:21;21.70;99.90
8248;DHT22;4164;49.844;8.830;2022-07-11T08:28:47;22.20;99.90
8248;DHT22;4164;49.844;8.830;2022-07-11T08:31:12;22.40;99.90
8248;DHT22;4164;49.844;8.830;2022-07-11T08:33:38;22.80;99.90
8248;DHT22;4164;49.844;8.830;2022-07-11T08:36:04;22.90;99.90
8248;DHT22;4164;49.844;8.830;2022-07-11T08:38:29;22.70;99.90
8248;DHT22;4164;49.844;8.830;2022-07-11T08:40:55;22.60;99.90
8248;DHT22;4164;49.844;8.830;2022-07-11T08:43:27;22.70;99.90
8248;DHT22;4164;49.844;8.830;2022-07-11T08:45:57;22.90;99.90
8248;DHT22;4164;49.844;8.830;2022-07-11T08:48:23;23.00;99.90
8248;DHT22;4164;49.844;8.830;2022-07-11T08:50:50;23.30;99.90
8248;DHT22;4164;49.844;8.830;2022-07-11T08:53:16;23.40;99.90
8248;DHT22;4164;49.844;8.830;2022-07-11T08:55:42;24.00;99.90
8248;DHT22;4164;49.844;8.830;2022-07-11T08:58:08;24.40;99.90
8248;DHT22;4164;49.844;8.830;2022-07-11T09:00:35;23.60;99.90
8248;DHT22;4164;49.844;8.830;2022-07-11T09:03:03;22.80;99.90
8248;DHT22;4164;49.844;8.830;2022-07-11T09:05:31;22.70;99.90
8248;DHT22;4164;49.844;8.830;2022-07-11T09:07:57;22.70;99.90
8248;DHT22;4164;49.844;8.830;2022-07-11T09:10:23;22.50;99.90
8248;DHT22;4164;49.844;8.830;2022-07-11T09:13:08;22.20;99.90
8248;DHT22;4164;49.844;8.830;2022-07-11T09:15:44;22.40;99.90
8248;DHT22;4164;49.844;8.830;2022-07-11T09:21:05;22.40;99.90
8248;DHT22;4164;49.844;8.830;2022-07-11T09:23:51;23.00;99.90
8248;DHT22;4164;49.844;8.830;2022-07-11T09:26:36;23.30;99.90
8248;DHT22;4164;49.844;8.830;2022-07-11T09:29:15;22.80;99.90
8248;DHT22;4164;49.844;8.830;2022-07-11T09:31:42;22.80;99.90
8248;DHT22;4164;49.844;8.830;2022-07-11T09:34:13;22.80;99.90
8248;DHT22;4164;49.844;8.830;2022-07-11T09:36:44;22.70;99.90
8248;DHT22;4164;49.844;8.830;2022-07-11T09:39:15;22.80;99.90
8248;DHT22;4164;49.844;8.830;2022-07-11T09:41:41;22.70;99.90
8248;DHT22;4164;49.844;8.830;2022-07-11T09:44:11;22.70;99.90
8248;DHT22;4164;49.844;8.830;2022-07-11T09:46:38;23.00;99.90
8248;DHT22;4164;49.844;8.830;2022-07-11T09:49:04;22.40;99.90
8248;DHT22;4164;49.844;8.830;2022-07-11T09:51:37;22.40;99.90
8248;DHT22;4164;49.844;8.830;2022-07-11T09:54:04;22.60;99.90
8248;DHT22;4164;49.844;8.830;2022-07-11T09:56:46;22.70;99.90
8248;DHT22;4164;49.844;8.830;2022-07-11T09:59:17;23.30;99.90
8248;DHT22;4164;49.844;8.830;2022-07-11T10:01:44;23.80;99.90
8248;DHT22;4164;49.844;8.830;2022-07-11T10:04:10;23.80;99.90
8248;DHT22;4164;49.844;8.830;2022-07-11T10:06:36;24.00;99.90
8248;DHT22;4164;49.844;8.830;2022-07-11T10:09:06;23.90;99.90
8248;DHT22;4164;49.844;8.830;2022-07-11T10:11:32;22.80;99.90
8248;DHT22;4164;49.844;8.830;2022-07-11T10:14:03;22.10;99.90
8248;DHT22;4164;49.844;8.830;2022-07-11T10:22:33;22.70;99.90
8248;DHT22;4164;49.844;8.830;2022-07-11T10:28:22;23.50;99.90
8248;DHT22;4164;49.844;8.830;2022-07-11T10:30:51;23.30;99.90
8248;DHT22;4164;49.844;8.830;2022-07-11T10:33:18;23.70;99.90
8248;DHT22;4164;49.844;8.830;2022-07-11T10:35:48;24.00;99.90
8248;DHT22;4164;49.844;8.830;2022-07-11T10:38:18;24.00;99.90
8248;DHT22;4164;49.844;8.830;2022-07-11T10:40:54;23.50;99.90
8248;DHT22;4164;49.844;8.830;2022-07-11T10:45:57;25.40;99.90
8248;DHT22;4164;49.844;8.830;2022-07-11T10:48:24;25.70;99.90
8248;DHT22;4164;49.844;8.830;2022-07-11T10:53:32;25.10;99.90
8248;DHT22;4164;49.844;8.830;2022-07-11T10:56:35;25.10;99.90
8248;DHT22;4164;49.844;8.830;2022-07-11T10:59:13;24.40;99.90
8248;DHT22;4164;49.844;8.830;2022-07-11T11:05:04;23.20;99.90
8248;DHT22;4164;49.844;8.830;2022-07-11T11:10:07;23.10;99.90
8248;DHT22;4164;49.844;8.830;2022-07-11T11:15:39;23.00;99.90
8248;DHT22;4164;49.844;8.830;2022-07-11T11:23:43;23.50;99.90
8248;DHT22;4164;49.844;8.830;2022-07-11T11:26:12;23.60;99.90
8248;DHT22;4164;49.844;8.830;2022-07-11T11:29:00;24.50;99.90
8248;DHT22;4164;49.844;8.830;2022-07-11T11:31:27;24.80;99.90
8248;DHT22;4164;49.844;8.830;2022-07-11T11:33:53;25.50;99.90
8248;DHT22;4164;49.844;8.830;2022-07-11T11:36:21;26.80;99.90
8248;DHT22;4164;49.844;8.830;2022-07-11T11:38:47;26.80;99.90
8248;DHT22;4164;49.844;8.830;2022-07-11T11:41:20;26.90;99.90
8248;DHT22;4164;49.844;8.830;2022-07-11T11:43:51;26.30;99.90
8248;DHT22;4164;49.844;8.830;2022-07-11T11:46:17;26.30;99.90
8248;DHT22;4164;49.844;8.830;2022-07-11T11:48:42;27.00;99.10
8248;DHT22;4164;49.844;8.830;2022-07-11T11:51:15;26.70;97.60
8248;DHT22;4164;49.844;8.830;2022-07-11T11:53:46;26.50;97.50
8248;DHT22;4164;49.844;8.830;2022-07-11T11:58:40;25.70;98.90
8248;DHT22;4164;49.844;8.830;2022-07-11T12:01:05;26.20;98.70
8248;DHT22;4164;49.844;8.830;2022-07-11T12:03:56;26.20;97.60
8248;DHT22;4164;49.844;8.830;2022-07-11T12:06:33;25.70;98.20
8248;DHT22;4164;49.844;8.830;2022-07-11T12:09:05;25.40;98.60
8248;DHT22;4164;49.844;8.830;2022-07-11T12:11:31;25.30;99.90
8248;DHT22;4164;49.844;8.830;2022-07-11T12:13:58;25.30;99.90
8248;DHT22;4164;49.844;8.830;2022-07-11T12:16:25;25.20;99.20
8248;DHT22;4164;49.844;8.830;2022-07-11T12:19:22;25.10;99.90
8248;DHT22;4164;49.844;8.830;2022-07-11T12:21:53;25.10;99.90
8248;DHT22;4164;49.844;8.830;2022-07-11T12:24:24;24.60;99.90
8248;DHT22;4164;49.844;8.830;2022-07-11T12:26:52;24.30;99.90
8248;DHT22;4164;49.844;8.830;2022-07-11T12:29:19;24.50;99.90
8248;DHT22;4164;49.844;8.830;2022-07-11T12:34:17;25.10;99.60
8248;DHT22;4164;49.844;8.830;2022-07-11T12:36:43;25.10;99.50
8248;DHT22;4164;49.844;8.830;2022-07-11T12:39:21;25.10;99.90
8248;DHT22;4164;49.844;8.830;2022-07-11T12:41:47;24.10;99.90
8248;DHT22;4164;49.844;8.830;2022-07-11T12:44:38;23.80;99.90
8248;DHT22;4164;49.844;8.830;2022-07-11T12:47:24;24.20;99.90
8248;DHT22;4164;49.844;8.830;2022-07-11T12:49:51;24.80;99.90
8248;DHT22;4164;49.844;8.830;2022-07-11T12:52:17;25.90;99.90
8248;DHT22;4164;49.844;8.830;2022-07-11T12:54:43;26.80;97.80
8248;DHT22;4164;49.844;8.830;2022-07-11T12:57:09;27.30;95.00
8248;DHT22;4164;49.844;8.830;2022-07-11T12:59:39;26.90;94.80
8248;DHT22;4164;49.844;8.830;2022-07-11T13:02:12;26.70;94.80
8248;DHT22;4164;49.844;8.830;2022-07-11T13:04:47;26.50;94.70
8248;DHT22;4164;49.844;8.830;2022-07-11T13:10:09;27.50;90.60
8248;DHT22;4164;49.844;8.830;2022-07-11T13:12:35;28.00;91.40
8248;DHT22;4164;49.844;8.830;2022-07-11T13:15:03;27.70;89.40
8248;DHT22;4164;49.844;8.830;2022-07-11T13:17:35;28.10;90.00
8248;DHT22;4164;49.844;8.830;2022-07-11T13:20:01;27.00;90.20
8248;DHT22;4164;49.844;8.830;2022-07-11T13:22:26;27.00;90.40
8248;DHT22;4164;49.844;8.830;2022-07-11T13:24:52;26.90;91.00
8248;DHT22;4164;49.844;8.830;2022-07-11T13:27:18;26.50;90.90
8248;DHT22;4164;49.844;8.830;2022-07-11T13:29:43;27.70;89.20
8248;DHT22;4164;49.844;8.830;2022-07-11T13:32:10;29.70;81.30
8248;DHT22;4164;49.844;8.830;2022-07-11T13:34:35;30.40;77.20
8248;DHT22;4164;49.844;8.830;2022-07-11T13:37:01;31.10;76.70
8248;DHT22;4164;49.844;8.830;2022-07-11T13:39:27;30.40;74.60
8248;DHT22;4164;49.844;8.830;2022-07-11T13:41:52;31.60;75.70
8248;DHT22;4164;49.844;8.830;2022-07-11T13:44:18;33.90;68.60
8248;DHT22;4164;49.844;8.830;2022-07-11T13:46:43;34.00;63.40
8248;DHT22;4164;49.844;8.830;2022-07-11T13:49:09;33.10;61.20
8248;DHT22;4164;49.844;8.830;2022-07-11T13:51:37;31.40;64.60
8248;DHT22;4164;49.844;8.830;2022-07-11T13:54:02;31.70;64.70
8248;DHT22;4164;49.844;8.830;2022-07-11T13:56:28;33.20;60.60
8248;DHT22;4164;49.844;8.830;2022-07-11T13:58:54;32.50;62.60
8248;DHT22;4164;49.844;8.830;2022-07-11T14:01:19;34.40;63.60
8248;DHT22;4164;49.844;8.830;2022-07-11T14:03:45;36.40;57.30
8248;DHT22;4164;49.844;8.830;2022-07-11T14:06:11;36.10;54.90
8248;DHT22;4164;49.844;8.830;2022-07-11T14:08:37;35.70;55.00
8248;DHT22;4164;49.844;8.830;2022-07-11T14:11:02;36.20;52.10
8248;DHT22;4164;49.844;8.830;2022-07-11T14:13:28;35.00;52.20
8248;DHT22;4164;49.844;8.830;2022-07-11T14:15:54;34.80;54.50
8248;DHT22;4164;49.844;8.830;2022-07-11T14:18:19;36.30;52.50
8248;DHT22;4164;49.844;8.830;2022-07-11T14:20:45;37.60;49.50
8248;DHT22;4164;49.844;8.830;2022-07-11T14:23:10;38.00;47.80
8248;DHT22;4164;49.844;8.830;2022-07-11T14:25:36;37.80;47.10
8248;DHT22;4164;49.844;8.830;2022-07-11T14:28:02;37.00;45.40
8248;DHT22;4164;49.844;8.830;2022-07-11T14:30:27;34.50;48.30
8248;DHT22;4164;49.844;8.830;2022-07-11T14:32:53;33.30;50.10
8248;DHT22;4164;49.844;8.830;2022-07-11T14:35:19;31.40;52.50
8248;DHT22;4164;49.844;8.830;2022-07-11T14:37:44;29.40;56.20
8248;DHT22;4164;49.844;8.830;2022-07-11T14:40:10;28.30;58.50
8248;DHT22;4164;49.844;8.830;2022-07-11T14:42:35;27.40;61.70
8248;DHT22;4164;49.844;8.830;2022-07-11T14:45:01;27.80;62.50
8248;DHT22;4164;49.844;8.830;2022-07-11T14:47:27;30.50;59.60
8248;DHT22;4164;49.844;8.830;2022-07-11T14:49:52;32.90;55.40
8248;DHT22;4164;49.844;8.830;2022-07-11T14:52:18;33.10;53.10
8248;DHT22;4164;49.844;8.830;2022-07-11T14:54:44;31.90;54.70
8248;DHT22;4164;49.844;8.830;2022-07-11T14:57:10;31.40;56.10
8248;DHT22;4164;49.844;8.830;2022-07-11T14:59:36;31.00;55.40
8248;DHT22;4164;49.844;8.830;2022-07-11T15:02:01;31.10;55.40
8248;DHT22;4164;49.844;8.830;2022-07-11T15:04:27;31.30;56.10
8248;DHT22;4164;49.844;8.830;2022-07-11T15:06:53;32.40;54.00
8248;DHT22;4164;49.844;8.830;2022-07-11T15:09:37;33.30;53.00
8248;DHT22;4164;49.844;8.830;2022-07-11T15:12:21;33.30;51.60
8248;DHT22;4164;49.844;8.830;2022-07-11T15:14:47;31.60;54.00
8248;DHT22;4164;49.844;8.830;2022-07-11T15:17:12;31.20;55.00
8248;DHT22;4164;49.844;8.830;2022-07-11T15:19:38;30.20;57.00
8248;DHT22;4164;49.844;8.830;2022-07-11T15:22:05;29.30;58.10
8248;DHT22;4164;49.844;8.830;2022-07-11T15:24:31;29.00;59.60
8248;DHT22;4164;49.844;8.830;2022-07-11T15:26:56;29.00;60.60
8248;DHT22;4164;49.844;8.830;2022-07-11T15:29:26;28.50;60.50
8248;DHT22;4164;49.844;8.830;2022-07-11T15:31:52;27.90;62.50
8248;DHT22;4164;49.844;8.830;2022-07-11T15:34:17;27.40;63.00
8248;DHT22;4164;49.844;8.830;2022-07-11T15:36:45;27.10;64.60
8248;DHT22;4164;49.844;8.830;2022-07-11T15:39:11;27.00;66.10
8248;DHT22;4164;49.844;8.830;2022-07-11T15:41:36;27.10;67.30
8248;DHT22;4164;49.844;8.830;2022-07-11T15:44:02;27.30;69.00
8248;DHT22;4164;49.844;8.830;2022-07-11T15:46:27;27.50;67.60
8248;DHT22;4164;49.844;8.830;2022-07-11T15:48:53;27.60;68.60
8248;DHT22;4164;49.844;8.830;2022-07-11T15:51:18;27.40;68.20
8248;DHT22;4164;49.844;8.830;2022-07-11T15:53:44;26.70;69.10
8248;DHT22;4164;49.844;8.830;2022-07-11T15:56:09;26.70;69.70
8248;DHT22;4164;49.844;8.830;2022-07-11T15:58:35;26.90;68.50
8248;DHT22;4164;49.844;8.830;2022-07-11T16:01:01;26.80;66.10
8248;DHT22;4164;49.844;8.830;2022-07-11T16:03:27;26.50;65.50
8248;DHT22;4164;49.844;8.830;2022-07-11T16:05:56;26.20;66.20
8248;DHT22;4164;49.844;8.830;2022-07-11T16:08:22;26.50;69.50
8248;DHT22;4164;49.844;8.830;2022-07-11T16:10:49;26.50;69.70
8248;DHT22;4164;49.844;8.830;2022-07-11T16:13:15;26.70;70.90
8248;DHT22;4164;49.844;8.830;2022-07-11T16:15:43;26.90;69.40
8248;DHT22;4164;49.844;8.830;2022-07-11T16:18:09;26.90;68.80
8248;DHT22;4164;49.844;8.830;2022-07-11T16:20:40;26.60;69.00
8248;DHT22;4164;49.844;8.830;2022-07-11T16:23:05;26.20;70.60
8248;DHT22;4164;49.844;8.830;2022-07-11T16:25:31;26.10;72.90
8248;DHT22;4164;49.844;8.830;2022-07-11T16:27:57;25.80;71.80
8248;DHT22;4164;49.844;8.830;2022-07-11T16:30:23;25.80;74.80
8248;DHT22;4164;49.844;8.830;2022-07-11T16:32:58;25.70;73.70
8248;DHT22;4164;49.844;8.830;2022-07-11T16:35:24;25.30;74.40
8248;DHT22;4164;49.844;8.830;2022-07-11T16:37:50;25.20;76.50
8248;DHT22;4164;49.844;8.830;2022-07-11T16:40:16;25.30;76.10
8248;DHT22;4164;49.844;8.830;2022-07-11T16:43:00;25.40;77.20